Time;durP1;ratioP1;P1;durP2;ratioP2;P2;SDS_P1;SDS_P2;PMS_P1;PMS_P2;Temp;Humidity;BMP_temperature;BMP_pressure;BME280_temperature;BME280_humidity;BME280_pressure;Samples;Min_cycle;Max_cycle;Signal;HPM_P1;HPM_P2
2022/05/22 00:00:09;;;;;;;4.40;3.00;;;;;;;22.11;45.66;98974.91;5069750;28;20187;-62
2022/05/22 00:02:37;;;;;;;5.67;3.70;;;;;;;22.01;46.12;98973.53;5070064;28;20198;-62
2022/05/22 00:05:05;;;;;;;4.50;3.27;;;;;;;21.96;46.48;98978.09;5069677;28;20227;-63
2022/05/22 00:07:32;;;;;;;4.90;3.27;;;;;;;21.87;46.71;98983.66;5069856;28;20191;-62
2022/05/22 00:10:01;;;;;;;4.23;3.30;;;;;;;21.82;47.23;98980.34;5069466;28;20211;-63
2022/05/22 00:12:28;;;;;;;4.23;3.80;;;;;;;21.70;47.88;98973.78;5069824;28;20219;-63
2022/05/22 00:14:55;;;;;;;5.90;3.90;;;;;;;21.69;48.02;98969.50;5069796;28;20199;-62
2022/05/22 00:17:22;;;;;;;4.37;3.63;;;;;;;21.65;48.34;98960.91;5069638;28;20191;-63
2022/05/22 00:19:50;;;;;;;5.70;4.32;;;;;;;21.69;48.65;98956.41;5069301;28;20421;-63
2022/05/22 00:22:17;;;;;;;5.80;3.83;;;;;;;21.74;48.45;98950.13;5069938;28;20195;-61
2022/05/22 00:24:44;;;;;;;5.77;3.80;;;;;;;21.84;48.48;98961.06;5069639;28;20198;-61
2022/05/22 00:27:11;;;;;;;4.97;4.03;;;;;;;21.90;48.59;98952.16;5069899;28;20207;-61
2022/05/22 00:29:39;;;;;;;5.32;4.45;;;;;;;22.04;48.52;98953.34;5068743;28;20461;-61
2022/05/22 00:32:07;;;;;;;4.60;4.03;;;;;;;22.21;48.17;98952.69;5069746;28;20195;-63
2022/05/22 00:34:33;;;;;;;5.67;4.03;;;;;;;22.33;47.98;98949.59;5069801;28;21030;-63
2022/05/22 00:37:03;;;;;;;4.70;4.07;;;;;;;22.45;47.83;98954.34;5069920;28;20188;-62
2022/05/22 00:39:30;;;;;;;4.00;3.70;;;;;;;22.51;47.48;98938.38;5069538;28;20251;-62
2022/05/22 00:41:58;;;;;;;5.37;4.10;;;;;;;22.58;47.54;98941.59;5069756;28;20189;-62
2022/05/22 00:44:26;;;;;;;5.10;3.50;;;;;;;22.73;47.61;98949.72;5070634;28;20195;-62
2022/05/22 00:46:53;;;;;;;4.20;3.80;;;;;;;22.81;46.97;98942.38;5072896;28;20195;-62
2022/05/22 00:49:24;;;;;;;4.30;3.97;;;;;;;22.85;47.37;98936.06;5073423;28;20354;-62
2022/05/22 00:51:57;;;;;;;4.50;4.10;;;;;;;22.85;47.64;98933.47;5073088;28;20191;-62
2022/05/22 00:54:29;;;;;;;4.03;3.70;;;;;;;22.91;47.76;98938.44;5073090;28;20195;-63
2022/05/22 00:57:01;;;;;;;3.93;3.53;;;;;;;22.87;48.15;98925.56;5072805;28;20187;-63
2022/05/22 00:59:33;;;;;;;5.13;4.40;;;;;;;22.94;48.30;98937.47;5072828;28;20188;-62
2022/05/22 01:02:00;;;;;;;6.13;4.40;;;;;;;23.03;47.98;98930.97;5072670;28;20199;-64
2022/05/22 01:04:31;;;;;;;4.70;4.07;;;;;;;23.02;48.14;98927.50;5072959;28;20202;-63
2022/05/22 01:06:58;;;;;;;5.03;4.40;;;;;;;23.10;47.71;98935.06;5072402;28;20202;-63
2022/05/22 01:09:26;;;;;;;4.17;3.77;;;;;;;23.11;47.96;98936.75;5072548;28;20219;-63
2022/05/22 01:11:59;;;;;;;5.07;4.10;;;;;;;23.09;48.56;98934.19;5072502;28;20202;-63
2022/05/22 01:14:28;;;;;;;7.20;3.70;;;;;;;23.03;48.45;98926.59;5072819;28;20405;-61
2022/05/22 01:16:55;;;;;;;7.03;4.03;;;;;;;23.03;48.49;98925.75;5072829;28;20441;-63
2022/05/22 01:19:23;;;;;;;6.57;4.90;;;;;;;23.02;48.84;98919.63;5072948;28;20258;-61
2022/05/22 01:21:54;;;;;;;6.13;4.80;;;;;;;23.07;48.26;98915.06;5072302;28;20196;-61
2022/05/22 01:24:21;;;;;;;4.72;4.32;;;;;;;23.08;48.35;98915.91;5071410;28;20445;-61
2022/05/22 01:26:49;;;;;;;4.03;3.63;;;;;;;23.15;48.55;98919.97;5072588;28;20180;-63
2022/05/22 01:29:17;;;;;;;4.50;4.10;;;;;;;23.17;48.22;98913.75;5072028;28;20188;-63
2022/05/22 01:31:44;;;;;;;4.53;4.13;;;;;;;23.17;48.62;98915.50;5072100;28;20662;-61
2022/05/22 01:34:11;;;;;;;4.90;3.93;;;;;;;23.15;48.57;98905.09;5071980;28;20191;-63
2022/05/22 01:36:38;;;;;;;7.10;4.90;;;;;;;23.19;48.53;98903.19;5072153;28;20199;-63
2022/05/22 01:39:07;;;;;;;6.47;4.30;;;;;;;23.23;48.74;98907.38;5072062;28;20237;-62
2022/05/22 01:41:35;;;;;;;7.93;4.43;;;;;;;23.32;47.95;98899.13;5072409;28;20194;-63
2022/05/22 01:44:02;;;;;;;4.40;4.10;;;;;;;23.29;48.36;98904.50;5071856;28;20195;-63
2022/05/22 01:46:29;;;;;;;4.43;4.03;;;;;;;23.27;48.22;98898.44;5071942;28;20196;-63
2022/05/22 01:48:56;;;;;;;4.27;3.87;;;;;;;23.16;48.55;98906.78;5071946;28;20191;-63
2022/05/22 01:51:24;;;;;;;5.00;4.37;;;;;;;22.97;48.75;98913.75;5071828;28;20223;-63
2022/05/22 01:53:53;;;;;;;4.40;4.00;;;;;;;22.99;48.91;98906.66;5071705;28;20187;-62
2022/05/22 01:56:21;;;;;;;4.70;4.27;;;;;;;22.92;49.46;98902.63;5070685;28;20187;-63
2022/05/22 01:58:48;;;;;;;10.23;4.23;;;;;;;22.90;49.70;98909.72;5071900;28;20203;-62
2022/05/22 02:01:14;;;;;;;5.03;4.53;;;;;;;22.86;50.35;98908.97;5071923;28;20238;-62
2022/05/22 02:03:41;;;;;;;8.30;4.27;;;;;;;22.81;50.97;98905.72;5071503;28;20192;-62
2022/05/22 02:06:08;;;;;;;8.07;4.63;;;;;;;22.79;50.95;98906.69;5071536;28;20187;-62
2022/05/22 02:08:34;;;;;;;4.90;4.00;;;;;;;22.91;50.15;98907.00;5071482;28;20658;-63
2022/05/22 02:11:03;;;;;;;5.18;4.28;;;;;;;22.90;49.40;98902.69;5070664;28;20456;-63
2022/05/22 02:13:35;;;;;;;6.30;4.47;;;;;;;23.07;49.25;98909.84;5071350;28;20195;-63
2022/05/22 02:16:01;;;;;;;4.60;4.20;;;;;;;23.13;49.01;98920.03;5071583;28;20198;-61
2022/05/22 02:18:28;;;;;;;5.77;4.33;;;;;;;23.14;49.00;98913.03;5071465;28;20609;-61
2022/05/22 02:20:55;;;;;;;5.30;4.80;;;;;;;23.20;48.63;98911.00;5071249;28;20199;-61
2022/05/22 02:23:23;;;;;;;4.83;4.23;;;;;;;23.16;48.62;98911.16;5071288;28;20666;-63
2022/05/22 02:25:55;;;;;;;5.13;4.23;;;;;;;23.04;48.33;98889.00;5071108;28;20566;-61
2022/05/22 02:28:24;;;;;;;5.97;4.60;;;;;;;23.17;48.43;98912.88;5070988;28;20187;-61
2022/05/22 02:30:55;;;;;;;5.00;4.60;;;;;;;23.25;48.63;98911.63;5070999;28;20223;-61
2022/05/22 02:33:22;;;;;;;5.20;4.57;;;;;;;23.24;48.58;98911.72;5070781;28;20665;-63
2022/05/22 02:35:51;;;;;;;5.57;4.97;;;;;;;23.24;48.82;98915.16;5070660;28;20240;-64
2022/05/22 02:38:18;;;;;;;5.67;4.73;;;;;;;23.13;49.26;98913.97;5071002;28;20201;-64
2022/05/22 02:40:46;;;;;;;5.17;4.70;;;;;;;22.97;49.92;98915.50;5070465;28;20745;-64
2022/05/22 02:43:14;;;;;;;4.73;4.43;;;;;;;22.89;50.24;98919.31;5070832;28;20194;-62
2022/05/22 02:45:41;;;;;;;5.53;4.83;;;;;;;22.86;50.61;98913.34;5070785;28;20195;-64
2022/05/22 02:48:11;;;;;;;5.63;4.80;;;;;;;22.89;50.15;98908.00;5070152;28;20437;-64
2022/05/22 02:50:39;;;;;;;5.90;5.33;;;;;;;23.07;49.50;98908.97;5070754;28;20280;-64
2022/05/22 02:53:06;;;;;;;5.80;4.80;;;;;;;23.04;49.83;98904.72;5070818;28;20187;-62
2022/05/22 02:55:33;;;;;;;5.10;4.70;;;;;;;23.02;50.07;98903.09;5070665;28;20640;-62
2022/05/22 02:58:00;;;;;;;5.10;4.70;;;;;;;23.09;49.74;98909.75;5070544;28;20187;-64
2022/05/22 03:00:30;;;;;;;5.33;4.93;;;;;;;23.08;49.90;98900.19;5070435;28;20192;-62
2022/05/22 03:02:57;;;;;;;6.07;5.00;;;;;;;23.06;50.22;98915.13;5070512;28;20195;-63
2022/05/22 03:05:26;;;;;;;10.10;5.20;;;;;;;23.09;50.07;98915.00;5070735;28;20202;-63
2022/05/22 03:07:54;;;;;;;6.35;5.50;;;;;;;23.21;50.15;98914.47;5069340;28;20451;-63
2022/05/22 03:10:21;;;;;;;7.43;5.17;;;;;;;23.22;50.35;98911.78;5070081;28;20300;-61
2022/05/22 03:12:48;;;;;;;6.10;5.60;;;;;;;23.28;49.71;98919.38;5070443;28;20218;-63
2022/05/22 03:15:16;;;;;;;5.75;5.25;;;;;;;23.34;49.92;98923.50;5069988;28;20434;-63
2022/05/22 03:17:43;;;;;;;6.50;5.40;;;;;;;23.30;49.94;98924.53;5070302;28;20669;-62
2022/05/22 03:20:12;;;;;;;5.20;4.80;;;;;;;23.29;50.11;98922.84;5070421;28;20582;-62
2022/05/22 03:22:40;;;;;;;5.53;5.03;;;;;;;23.37;49.64;98926.88;5070432;28;20195;-62
2022/05/22 03:25:09;;;;;;;6.37;4.87;;;;;;;23.34;49.93;98929.59;5070438;28;20192;-62
2022/05/22 03:27:36;;;;;;;6.10;5.50;;;;;;;23.38;50.40;98936.41;5070162;28;20191;-62
2022/05/22 03:30:04;;;;;;;7.17;5.53;;;;;;;23.35;50.23;98933.91;5070006;28;20219;-62
2022/05/22 03:32:32;;;;;;;6.70;5.83;;;;;;;23.34;50.85;98929.59;5070372;28;20289;-62
2022/05/22 03:35:00;;;;;;;7.10;5.47;;;;;;;23.36;50.85;98932.13;5069775;28;20446;-62
2022/05/22 03:37:27;;;;;;;6.47;5.73;;;;;;;23.42;50.46;98926.66;5070135;28;20199;-62
2022/05/22 03:39:55;;;;;;;5.60;5.17;;;;;;;23.41;51.00;98933.66;5070152;28;20227;-62
2022/05/22 03:42:24;;;;;;;6.20;5.47;;;;;;;23.39;51.12;98937.28;5070027;28;20191;-64
2022/05/22 03:44:51;;;;;;;7.40;5.50;;;;;;;23.37;51.14;98929.50;5069144;28;20499;-62
2022/05/22 03:47:18;;;;;;;6.20;5.60;;;;;;;23.45;50.71;98931.75;5070161;28;20234;-63
2022/05/22 03:49:45;;;;;;;7.40;5.60;;;;;;;23.42;50.60;98929.28;5069763;28;20194;-64
2022/05/22 03:52:12;;;;;;;6.83;5.10;;;;;;;23.43;50.16;98931.00;5070002;28;20192;-62
2022/05/22 03:54:39;;;;;;;6.90;5.53;;;;;;;23.46;49.85;98930.81;5069961;28;20202;-62
2022/05/22 03:57:09;;;;;;;5.60;5.20;;;;;;;23.48;49.43;98929.00;5070209;28;20203;-62
2022/05/22 03:59:38;;;;;;;8.10;5.83;;;;;;;23.49;48.81;98930.69;5070424;28;20325;-62
2022/05/22 04:02:05;;;;;;;5.83;5.23;;;;;;;23.52;49.25;98927.06;5070226;28;20190;-63
2022/05/22 04:04:32;;;;;;;6.37;5.53;;;;;;;23.50;49.35;98932.41;5070106;28;20202;-61
2022/05/22 04:06:59;;;;;;;5.73;5.23;;;;;;;23.51;49.41;98936.75;5070018;28;20662;-61
2022/05/22 04:09:28;;;;;;;6.57;5.13;;;;;;;23.54;49.23;98931.31;5069976;28;20192;-61
2022/05/22 04:11:55;;;;;;;5.90;5.30;;;;;;;23.57;49.50;98939.06;5069482;28;21252;-61
2022/05/22 04:14:24;;;;;;;6.73;5.10;;;;;;;23.52;49.64;98941.03;5070274;28;20438;-61
2022/05/22 04:16:51;;;;;;;5.83;4.87;;;;;;;23.57;49.54;98944.31;5070106;28;20577;-63
2022/05/22 04:19:18;;;;;;;5.70;5.13;;;;;;;23.57;49.60;98946.09;5071203;28;20196;-63
2022/05/22 04:21:45;;;;;;;6.10;5.57;;;;;;;23.60;48.72;98949.41;5073708;28;20183;-63
2022/05/22 04:26:56;;;;;;;5.83;5.33;;;;;;;23.63;48.29;98933.53;5073655;28;20582;-63
2022/05/22 04:29:24;;;;;;;5.83;4.87;;;;;;;23.77;47.84;98951.28;5073598;28;20184;-62
2022/05/22 04:31:51;;;;;;;6.55;5.40;;;;;;;23.80;47.49;98959.00;5072543;28;20449;-63
2022/05/22 04:34:18;;;;;;;6.40;5.33;;;;;;;23.87;46.84;98953.41;5073582;28;20211;-62
2022/05/22 04:36:44;;;;;;;8.37;4.60;;;;;;;23.90;46.52;98952.41;5073243;28;20196;-56
2022/05/22 04:39:11;;;;;;;5.90;4.65;;;;;;;23.96;46.71;98952.13;5072669;28;20962;-56
2022/05/22 04:41:38;;;;;;;7.13;5.03;;;;;;;24.04;45.54;98947.38;5073145;28;20217;-56
2022/05/22 04:44:06;;;;;;;9.03;5.03;;;;;;;24.04;45.06;98950.84;5073381;28;20199;-56
2022/05/22 04:46:34;;;;;;;4.97;4.43;;;;;;;24.11;44.98;98959.34;5073164;28;20223;-56
2022/05/22 04:49:03;;;;;;;4.67;4.27;;;;;;;24.11;44.61;98961.09;5073043;28;20566;-56
2022/05/22 04:51:30;;;;;;;5.20;4.70;;;;;;;24.21;44.07;98964.97;5072929;28;20724;-56
2022/05/22 04:53:57;;;;;;;4.77;4.27;;;;;;;24.23;44.28;98965.78;5073295;28;20202;-57
2022/05/22 04:56:24;;;;;;;5.30;4.27;;;;;;;24.31;43.75;98971.53;5072992;28;20717;-57
2022/05/22 04:58:51;;;;;;;5.22;4.60;;;;;;;24.36;43.55;98978.25;5072318;28;20437;-57
2022/05/22 05:01:18;;;;;;;5.00;4.20;;;;;;;24.44;43.40;98977.88;5072821;28;20218;-57
2022/05/22 05:03:46;;;;;;;7.93;4.20;;;;;;;24.47;43.18;98968.09;5072975;28;20198;-57
2022/05/22 05:06:13;;;;;;;7.33;4.33;;;;;;;24.54;43.49;98971.25;5072677;28;20669;-57
2022/05/22 05:08:39;;;;;;;6.88;4.38;;;;;;;24.54;43.17;98972.09;5071715;28;20429;-57
2022/05/22 05:11:06;;;;;;;4.90;4.10;;;;;;;24.67;42.62;98972.34;5072519;28;20222;-57
2022/05/22 05:13:33;;;;;;;4.80;4.40;;;;;;;24.71;42.58;98973.91;5072454;28;20195;-57
2022/05/22 05:16:02;;;;;;;4.23;3.87;;;;;;;24.77;43.01;98967.50;5072745;28;20538;-57
2022/05/22 05:18:30;;;;;;;4.70;4.30;;;;;;;24.74;42.45;98967.66;5072404;28;20206;-57
2022/05/22 05:21:01;;;;;;;6.03;4.37;;;;;;;24.80;42.69;98976.13;5072447;28;20268;-56
2022/05/22 05:23:28;;;;;;;5.20;4.73;;;;;;;24.86;42.91;98965.28;5072399;28;20198;-57
2022/05/22 05:25:55;;;;;;;5.13;4.50;;;;;;;24.89;42.33;98967.75;5072087;28;20456;-57
2022/05/22 05:28:22;;;;;;;4.40;4.00;;;;;;;24.91;41.95;98962.44;5072016;28;20203;-57
2022/05/22 05:30:49;;;;;;;5.03;4.40;;;;;;;24.96;41.56;98958.66;5072099;28;20223;-57
2022/05/22 05:33:16;;;;;;;5.07;4.47;;;;;;;24.78;41.98;98941.13;5072249;28;20202;-56
2022/05/22 05:35:43;;;;;;;4.53;4.13;;;;;;;24.91;41.13;98967.69;5071258;28;20434;-56
2022/05/22 05:38:11;;;;;;;6.50;3.80;;;;;;;24.87;41.23;98961.75;5072070;28;20195;-57
2022/05/22 05:40:38;;;;;;;4.53;4.13;;;;;;;24.86;41.36;98960.03;5071770;28;20225;-56
2022/05/22 05:43:06;;;;;;;5.00;3.93;;;;;;;24.88;40.92;98952.94;5071817;28;20196;-56
2022/05/22 05:45:33;;;;;;;4.70;3.47;;;;;;;25.02;40.59;98960.97;5071986;28;20210;-57
2022/05/22 05:48:00;;;;;;;6.00;3.70;;;;;;;25.28;40.01;98962.25;5071895;28;20192;-57
2022/05/22 05:50:28;;;;;;;4.67;4.13;;;;;;;25.42;39.52;98967.66;5071539;28;20735;-57
2022/05/22 05:52:57;;;;;;;4.77;3.87;;;;;;;25.49;39.35;98958.53;5071313;28;20539;-57
2022/05/22 05:55:26;;;;;;;6.90;3.93;;;;;;;25.56;38.89;98966.94;5070631;28;20533;-57
2022/05/22 05:57:53;;;;;;;6.17;3.63;;;;;;;25.67;38.66;98957.56;5071369;28;20200;-57
2022/05/22 06:00:22;;;;;;;4.20;3.80;;;;;;;25.61;38.49;98967.56;5071681;28;20191;-57
2022/05/22 06:02:49;;;;;;;4.90;4.33;;;;;;;25.70;38.02;98959.19;5071446;28;20202;-57
2022/05/22 06:05:17;;;;;;;4.80;3.53;;;;;;;25.68;36.97;98953.16;5070196;28;20947;-56
2022/05/22 06:07:44;;;;;;;5.37;3.40;;;;;;;25.88;36.78;98966.06;5071425;28;20438;-57
2022/05/22 06:10:12;;;;;;;5.10;3.57;;;;;;;26.11;36.73;98968.31;5071258;28;20192;-56
2022/05/22 06:12:40;;;;;;;3.87;3.40;;;;;;;26.19;35.03;98970.53;5071724;28;20255;-56
2022/05/22 06:15:08;;;;;;;4.57;3.60;;;;;;;26.12;35.63;98972.63;5071784;28;20195;-57
2022/05/22 06:17:38;;;;;;;4.50;3.40;;;;;;;26.25;35.37;98978.13;5071311;28;20192;-58
2022/05/22 06:20:08;;;;;;;4.40;3.47;;;;;;;26.31;35.27;98973.38;5071132;28;20202;-56
2022/05/22 06:22:36;;;;;;;7.22;3.97;;;;;;;26.30;35.91;98979.56;5071028;28;20444;-56
2022/05/22 06:25:04;;;;;;;4.37;3.47;;;;;;;26.31;35.52;98981.25;5071091;28;20198;-56
2022/05/22 06:27:31;;;;;;;4.77;3.43;;;;;;;26.27;35.62;98979.72;5071172;28;20694;-56
2022/05/22 06:29:59;;;;;;;4.20;3.67;;;;;;;26.24;35.39;98984.31;5071157;28;20674;-56
2022/05/22 06:32:26;;;;;;;6.53;3.40;;;;;;;26.20;35.19;98985.44;5070249;28;20453;-56
2022/05/22 06:34:53;;;;;;;6.17;3.63;;;;;;;26.28;35.34;98988.47;5070732;28;20191;-56
2022/05/22 06:37:22;;;;;;;9.63;3.37;;;;;;;26.24;34.72;98989.56;5071163;28;20214;-56
2022/05/22 06:39:51;;;;;;;3.22;2.92;;;;;;;26.26;34.04;98982.47;5070535;28;20228;-56
2022/05/22 06:42:21;;;;;;;3.10;2.90;;;;;;;26.26;34.03;98982.47;5070378;28;20252;-56
2022/05/22 06:44:55;;;;;;;6.93;2.87;;;;;;;26.26;33.96;98971.91;5070432;28;20198;-56
2022/05/22 06:47:23;;;;;;;3.67;3.17;;;;;;;26.29;34.38;98984.88;5070405;28;20202;-56
2022/05/22 06:49:51;;;;;;;6.18;3.38;;;;;;;26.19;33.78;98978.44;5070733;28;20199;-56
2022/05/22 06:52:18;;;;;;;4.67;2.70;;;;;;;26.18;33.48;98980.22;5069575;28;20441;-56
2022/05/22 06:54:45;;;;;;;4.88;3.22;;;;;;;26.31;33.13;98983.91;5070233;28;20194;-57
2022/05/22 06:57:16;;;;;;;4.90;3.22;;;;;;;26.44;33.43;98981.41;5070084;28;20778;-57
2022/05/22 06:59:44;;;;;;;6.20;4.45;;;;;;;26.49;33.88;98983.78;5070055;28;20993;-57
2022/05/22 07:02:10;;;;;;;3.60;3.30;;;;;;;26.40;32.98;98984.31;5070346;28;20191;-57
2022/05/22 07:04:39;;;;;;;16.45;3.13;;;;;;;26.47;32.95;98986.50;5070360;28;20547;-56
2022/05/22 07:07:06;;;;;;;4.75;3.25;;;;;;;26.44;33.08;98988.47;5070446;28;20191;-56
2022/05/22 07:09:33;;;;;;;4.88;3.40;;;;;;;26.47;32.27;98996.19;5070454;28;20222;-56
2022/05/22 07:12:00;;;;;;;5.63;3.30;;;;;;;26.48;32.40;98998.72;5070085;28;20728;-56
2022/05/22 07:14:28;;;;;;;3.17;2.50;;;;;;;26.44;32.68;98991.97;5070082;28;20214;-59
2022/05/22 07:16:56;;;;;;;3.33;2.90;;;;;;;26.53;33.02;98998.50;5070368;28;20191;-57
2022/05/22 07:19:22;;;;;;;6.05;3.20;;;;;;;26.60;33.52;99002.47;5069720;28;20446;-57
2022/05/22 07:21:51;;;;;;;3.80;3.50;;;;;;;26.63;33.55;98999.66;5069864;28;20206;-56
2022/05/22 07:24:17;;;;;;;4.43;2.90;;;;;;;26.73;33.43;98995.56;5069920;28;20188;-57
2022/05/22 07:26:44;;;;;;;3.92;2.95;;;;;;;26.56;33.56;98993.91;5069898;28;20194;-57
2022/05/22 07:29:11;;;;;;;4.78;3.33;;;;;;;26.45;33.76;98955.91;5069018;28;20916;-57
2022/05/22 07:31:41;;;;;;;8.48;3.40;;;;;;;26.67;33.66;98988.84;5069321;28;20693;-57
2022/05/22 07:34:08;;;;;;;7.17;3.00;;;;;;;26.59;33.61;98979.72;5069647;28;20191;-56
2022/05/22 07:36:35;;;;;;;4.57;3.27;;;;;;;26.66;33.84;98979.25;5069672;28;20195;-57
2022/05/22 07:39:04;;;;;;;3.47;3.17;;;;;;;26.74;33.61;98984.09;5069635;28;20338;-57
2022/05/22 07:41:31;;;;;;;4.53;3.05;;;;;;;26.93;33.47;98980.34;5069280;28;20187;-57
2022/05/22 07:43:58;;;;;;;3.40;2.50;;;;;;;26.89;33.27;98983.25;5069635;28;20573;-57
2022/05/22 07:46:25;;;;;;;5.45;3.33;;;;;;;27.03;33.40;98975.34;5069433;28;20191;-57
2022/05/22 07:48:52;;;;;;;2.95;2.53;;;;;;;27.05;33.14;98973.50;5069521;28;20192;-57
2022/05/22 07:51:19;;;;;;;5.45;2.85;;;;;;;27.07;33.18;98970.75;5069566;28;20712;-57
2022/05/22 07:53:46;;;;;;;3.67;2.72;;;;;;;27.12;33.11;98964.28;5071301;28;20197;-57
2022/05/22 07:56:14;;;;;;;3.72;2.65;;;;;;;26.98;33.25;98969.50;5073280;28;20441;-57
2022/05/22 07:58:41;;;;;;;3.45;2.42;;;;;;;27.07;33.48;98966.34;5073422;28;20195;-58
2022/05/22 08:01:08;;;;;;;6.15;3.10;;;;;;;27.17;33.36;98966.63;5073247;28;20628;-57
2022/05/22 08:03:35;;;;;;;4.43;2.85;;;;;;;27.29;32.98;98961.47;5073279;28;20223;-56
2022/05/22 08:06:02;;;;;;;4.93;2.72;;;;;;;27.32;32.91;98950.75;5072889;28;20195;-56
2022/05/22 08:08:29;;;;;;;3.33;2.38;;;;;;;27.35;32.90;98950.56;5073207;28;20191;-56
2022/05/22 08:10:58;;;;;;;3.80;2.63;;;;;;;27.39;32.58;98957.34;5072944;28;20297;-57
2022/05/22 08:13:27;;;;;;;3.55;2.35;;;;;;;27.42;33.26;98953.69;5073147;28;20224;-56
2022/05/22 08:15:54;;;;;;;3.08;2.47;;;;;;;27.30;33.79;98943.88;5072396;28;20939;-56
2022/05/22 08:18:21;;;;;;;3.50;2.70;;;;;;;27.34;32.61;98942.72;5073124;28;20191;-56
2022/05/22 08:20:49;;;;;;;8.70;2.90;;;;;;;27.20;32.85;98943.56;5073086;28;20218;-56
2022/05/22 08:23:19;;;;;;;3.35;2.20;;;;;;;27.16;31.74;98944.69;5073061;28;20654;-56
2022/05/22 08:25:47;;;;;;;4.30;2.45;;;;;;;27.29;31.82;98945.66;5072215;28;20861;-57
2022/05/22 08:28:14;;;;;;;4.10;2.40;;;;;;;27.43;31.10;98948.34;5072936;28;20187;-57
2022/05/22 08:30:43;;;;;;;3.65;2.50;;;;;;;27.49;30.45;98933.91;5072793;28;20670;-56
2022/05/22 08:33:10;;;;;;;3.85;2.13;;;;;;;27.50;30.14;98948.78;5072836;28;20616;-56
2022/05/22 08:35:40;;;;;;;4.60;2.17;;;;;;;27.57;29.71;98946.63;5072640;28;20196;-56
2022/05/22 08:38:07;;;;;;;3.30;2.60;;;;;;;27.53;30.53;98938.91;5072874;28;20260;-56
2022/05/22 08:40:47;;;;;;;3.90;2.30;;;;;;;27.48;30.35;98934.84;5072328;28;20234;-56
2022/05/22 08:43:17;;;;;;;3.80;2.40;;;;;;;27.51;30.59;98929.38;5072218;28;20442;-56
2022/05/22 08:45:47;;;;;;;2.70;2.15;;;;;;;27.70;30.12;98945.78;5072231;28;20628;-56
2022/05/22 08:48:22;;;;;;;4.97;1.83;;;;;;;27.75;29.13;98941.06;5072631;28;20191;-57
2022/05/22 08:50:50;;;;;;;2.20;1.83;;;;;;;27.95;29.27;98924.81;5072483;28;20679;-57
2022/05/22 08:53:25;;;;;;;4.22;2.30;;;;;;;28.13;29.16;98936.00;5071420;28;20939;-56
2022/05/22 08:58:58;;;;;;;3.70;2.20;;;;;;;28.62;28.15;98915.19;5072427;28;20689;-56
2022/05/22 09:01:34;;;;;;;10.73;2.38;;;;;;;28.69;28.30;98911.22;5072356;28;20198;-56
2022/05/22 09:04:11;;;;;;;4.00;2.10;;;;;;;28.46;26.82;98912.69;5072493;28;20192;-57
2022/05/22 09:06:43;;;;;;;4.50;2.40;;;;;;;28.49;26.87;98911.63;5071928;28;20191;-57
2022/05/22 09:09:10;;;;;;;7.07;2.45;;;;;;;28.68;27.03;98918.28;5072282;28;20214;-57
2022/05/22 09:11:55;;;;;;;3.63;2.35;;;;;;;28.58;26.75;98917.19;5071471;28;20442;-56
2022/05/22 09:14:26;;;;;;;5.25;2.17;;;;;;;28.56;27.05;98919.09;5071937;28;20199;-56
2022/05/22 09:17:00;;;;;;;3.88;1.95;;;;;;;28.55;26.88;98919.16;5071733;28;20314;-56
2022/05/22 09:19:37;;;;;;;2.57;2.30;;;;;;;28.43;26.77;98915.53;5071660;28;20359;-56
2022/05/22 09:22:14;;;;;;;2.33;1.90;;;;;;;28.33;27.34;98914.44;5072125;28;20198;-56
2022/05/22 09:24:52;;;;;;;4.25;2.72;;;;;;;28.38;27.82;98904.41;5071352;28;20206;-56
2022/05/22 09:27:26;;;;;;;2.65;2.00;;;;;;;28.41;27.15;98901.56;5071961;28;20195;-56
2022/05/22 09:30:03;;;;;;;3.28;2.60;;;;;;;28.51;26.93;98889.44;5071897;28;20187;-56
2022/05/22 09:32:56;;;;;;;4.93;2.15;;;;;;;28.78;26.90;98891.22;5071749;28;20640;-57
2022/05/22 09:35:31;;;;;;;6.15;3.22;;;;;;;29.01;27.28;98887.84;5071399;28;20195;-57
2022/05/22 09:38:12;;;;;;;5.53;2.75;;;;;;;29.03;26.66;98884.19;5071441;28;20195;-62
2022/05/22 09:40:46;;;;;;;2.95;2.35;;;;;;;28.91;26.79;98878.88;5071483;28;20222;-63
2022/05/22 09:43:56;;;;;;;5.30;2.70;;;;;;;28.91;27.12;98873.56;5071472;28;20662;-62
2022/05/22 09:46:44;;;;;;;2.42;2.22;;;;;;;28.96;26.78;98866.16;5071268;28;20198;-62
2022/05/22 09:49:27;;;;;;;3.65;2.30;;;;;;;29.16;26.85;98863.84;5070079;28;20433;-62
2022/05/22 09:52:02;;;;;;;5.32;2.35;;;;;;;29.41;26.37;98852.44;5071203;28;20237;-63
2022/05/22 09:54:44;;;;;;;5.47;2.55;;;;;;;29.61;26.16;98862.44;5071055;28;20198;-63
2022/05/22 09:57:26;;;;;;;2.67;2.30;;;;;;;29.55;26.29;98860.25;5070835;28;20195;-63
2022/05/22 10:00:05;;;;;;;2.50;2.30;;;;;;;29.28;26.00;98858.69;5071195;28;20199;-62
2022/05/22 10:02:47;;;;;;;4.85;2.65;;;;;;;29.18;25.71;98874.31;5070887;28;20191;-63
2022/05/22 10:05:25;;;;;;;2.22;1.88;;;;;;;28.96;25.81;98868.81;5070476;28;20198;-63
2022/05/22 10:07:59;;;;;;;3.15;2.60;;;;;;;29.08;26.37;98873.28;5071156;28;20199;-62
2022/05/22 10:10:32;;;;;;;3.25;2.78;;;;;;;29.39;27.33;98874.66;5070713;28;20192;-64
2022/05/22 10:13:09;;;;;;;6.88;2.80;;;;;;;29.22;26.56;98874.06;5070621;28;20199;-64
2022/05/22 10:15:47;;;;;;;5.32;2.92;;;;;;;29.25;27.33;98879.09;5070452;28;20468;-63
2022/05/22 10:18:29;;;;;;;7.28;2.60;;;;;;;29.06;26.74;98880.47;5069660;28;20194;-62
2022/05/22 10:21:10;;;;;;;3.10;2.30;;;;;;;29.22;27.78;98875.84;5070723;28;20184;-64
2022/05/22 10:23:50;;;;;;;2.50;2.30;;;;;;;29.31;27.40;98869.06;5071073;28;20291;-64
2022/05/22 10:26:27;;;;;;;4.50;2.67;;;;;;;29.49;27.11;98875.69;5070136;28;20191;-62
2022/05/22 10:28:58;;;;;;;3.20;2.10;;;;;;;29.64;27.29;98864.03;5070211;28;20191;-64
2022/05/22 10:31:34;;;;;;;3.72;2.38;;;;;;;29.68;27.81;98869.00;5070219;28;20191;-63
2022/05/22 10:34:06;;;;;;;5.22;2.53;;;;;;;29.72;27.91;98854.56;5070259;28;20222;-63
2022/05/22 10:36:39;;;;;;;3.97;2.53;;;;;;;29.91;27.31;98855.94;5070200;28;20191;-63
2022/05/22 10:39:09;;;;;;;3.35;1.83;;;;;;;30.09;26.82;98865.16;5070200;28;20605;-63
2022/05/22 10:44:30;;;;;;;4.40;2.13;;;;;;;29.99;24.49;98867.66;5068907;28;20414;-63
2022/05/22 10:46:59;;;;;;;2.28;1.88;;;;;;;29.77;24.53;98878.94;5070022;28;20688;-62
2022/05/22 10:49:37;;;;;;;4.72;2.20;;;;;;;29.78;24.56;98862.06;5070037;28;20187;-62
2022/05/22 10:52:07;;;;;;;4.75;2.38;;;;;;;30.07;23.75;98854.69;5070308;28;20580;-63
2022/05/22 10:54:36;;;;;;;6.72;2.22;;;;;;;30.12;24.52;98852.53;5070332;28;20195;-64
2022/05/22 10:57:12;;;;;;;4.97;2.22;;;;;;;30.09;24.10;98838.66;5070368;28;20192;-64
2022/05/22 10:59:39;;;;;;;2.25;1.95;;;;;;;29.94;24.53;98838.00;5070427;28;20206;-63
2022/05/22 11:02:17;;;;;;;2.20;2.00;;;;;;;29.96;24.74;98830.78;5069619;28;20424;-63
2022/05/22 11:04:46;;;;;;;2.83;2.20;;;;;;;29.93;24.85;98831.00;5070039;28;20202;-63
2022/05/22 11:07:28;;;;;;;2.72;2.00;;;;;;;30.03;24.67;98828.50;5070166;28;20293;-63
2022/05/22 11:09:57;;;;;;;2.58;2.15;;;;;;;30.11;26.20;98828.78;5070067;28;20199;-63
2022/05/22 11:12:26;;;;;;;3.92;2.47;;;;;;;30.12;26.97;98818.09;5070385;28;20223;-63
2022/05/22 11:15:05;;;;;;;4.85;2.50;;;;;;;29.85;27.31;98820.13;5069901;28;20658;-62
2022/05/22 11:17:32;;;;;;;3.30;2.25;;;;;;;30.07;27.79;98819.41;5070046;28;20209;-63
2022/05/22 11:20:13;;;;;;;3.88;1.95;;;;;;;30.04;28.07;98809.88;5069998;28;20195;-63
2022/05/22 11:22:59;;;;;;;3.70;2.00;;;;;;;29.96;27.59;98795.50;5070285;28;20215;-63
2022/05/22 11:25:35;;;;;;;4.50;2.35;;;;;;;29.79;27.22;98805.53;5069589;28;20281;-62
2022/05/22 11:28:22;;;;;;;3.30;2.83;;;;;;;29.78;27.83;98803.78;5069995;28;20195;-63
2022/05/22 11:30:55;;;;;;;3.17;2.40;;;;;;;29.79;27.80;98791.41;5068993;28;20454;-63
2022/05/22 11:33:37;;;;;;;4.60;2.40;;;;;;;29.96;27.49;98790.19;5069747;28;20219;-63
2022/05/22 11:36:14;;;;;;;2.88;2.47;;;;;;;29.92;27.01;98789.56;5070055;28;20195;-62
2022/05/22 11:39:19;;;;;;;4.13;2.58;;;;;;;29.64;28.08;98793.34;5069865;28;20457;-63
2022/05/22 11:41:52;;;;;;;2.20;1.90;;;;;;;29.60;26.81;98793.69;5070047;28;20195;-63
2022/05/22 11:44:56;;;;;;;4.10;2.50;;;;;;;29.81;27.39;98786.88;5069808;28;20561;-63
2022/05/22 11:47:39;;;;;;;2.80;2.60;;;;;;;29.98;26.45;98777.66;5049521;28;20191;-63
2022/05/22 11:50:22;;;;;;;4.72;2.45;;;;;;;29.99;26.38;98772.28;5069616;28;20262;-62
2022/05/22 11:53:00;;;;;;;2.55;2.35;;;;;;;30.01;27.04;98767.69;5069826;28;20219;-63
2022/05/22 11:55:37;;;;;;;2.40;2.30;;;;;;;30.03;26.66;98765.78;5069908;28;20195;-63